createdAt,value
2022-12-20T00:05:14.079Z,21.55
2022-12-20T00:10:40.479Z,23.05
2022-12-20T00:16:11.905Z,22.02
2022-12-20T00:21:34.756Z,24.23
2022-12-20T00:26:56.651Z,22.33
2022-12-20T00:32:18.501Z,22.52
2022-12-20T00:37:40.373Z,21.90
2022-12-20T00:43:02.226Z,22.02
2022-12-20T00:48:24.832Z,23.00
2022-12-20T00:53:47.180Z,22.98
2022-12-20T00:59:09.005Z,23.27
2022-12-20T01:04:30.801Z,24.13
2022-12-20T01:09:52.790Z,23.02
2022-12-20T01:15:14.717Z,23.05
2022-12-20T01:20:36.520Z,22.92
2022-12-20T01:26:00.354Z,25.25
2022-12-20T01:31:23.058Z,22.88
2022-12-20T01:36:44.906Z,24.65
2022-12-20T01:42:06.736Z,24.63
2022-12-20T01:47:34.022Z,23.30
2022-12-20T01:52:55.866Z,22.52
2022-12-20T01:58:19.862Z,24.08
2022-12-20T02:03:43.334Z,24.17
2022-12-20T02:09:06.865Z,22.30
2022-12-20T02:14:31.727Z,22.15
2022-12-20T02:20:23.321Z,22.55
2022-12-20T02:26:19.819Z,22.20
2022-12-20T02:31:55.458Z,20.70
2022-12-20T02:37:17.317Z,22.70
2022-12-20T02:42:39.209Z,21.08
2022-12-20T02:48:10.598Z,19.60
2022-12-20T02:53:33.726Z,20.33
2022-12-20T02:59:02.723Z,17.92
2022-12-20T03:04:28.087Z,18.80
2022-12-20T03:09:49.917Z,19.70
2022-12-20T03:15:12.046Z,19.50
2022-12-20T03:20:33.853Z,19.10
2022-12-20T03:25:55.698Z,18.30
2022-12-20T03:31:17.666Z,18.83
2022-12-20T03:36:39.489Z,18.50
2022-12-20T03:42:01.224Z,18.98
2022-12-20T03:47:23.017Z,18.35
2022-12-20T03:52:44.881Z,19.20
2022-12-20T03:58:06.676Z,16.70
2022-12-20T04:03:28.541Z,17.73
2022-12-20T04:08:50.515Z,17.48
2022-12-20T04:14:12.374Z,17.60
2022-12-20T04:19:34.200Z,18.08
2022-12-20T04:24:55.995Z,17.92
2022-12-20T04:30:18.003Z,17.85
2022-12-20T04:35:39.817Z,17.02
2022-12-20T04:41:01.620Z,17.40
2022-12-20T04:46:25.079Z,16.40
2022-12-20T04:51:46.895Z,16.42
2022-12-20T04:57:08.732Z,16.40
2022-12-20T05:02:30.644Z,17.65
2022-12-20T05:07:53.359Z,17.92
2022-12-20T05:13:15.504Z,17.08
2022-12-20T05:18:40.464Z,17.83
2022-12-20T05:24:05.346Z,17.27
2022-12-20T05:29:27.262Z,17.20
2022-12-20T05:34:49.044Z,17.27
2022-12-20T05:40:11.415Z,16.60
2022-12-20T05:45:33.790Z,17.15
2022-12-20T05:50:55.638Z,15.27
2022-12-20T05:56:17.533Z,15.18
2022-12-20T06:01:39.460Z,16.55
2022-12-20T06:07:01.437Z,16.50
2022-12-20T06:12:23.787Z,15.77
2022-12-20T06:17:45.591Z,15.05
2022-12-20T06:23:07.512Z,15.95
2022-12-20T06:28:29.817Z,14.20
2022-12-20T06:33:51.628Z,15.60
2022-12-20T06:39:14.417Z,16.40
2022-12-20T06:44:36.213Z,16.23
2022-12-20T06:49:58.062Z,14.52
2022-12-20T06:55:19.925Z,14.88
2022-12-20T07:00:41.876Z,15.50
2022-12-20T07:06:03.892Z,14.27
2022-12-20T07:11:25.817Z,14.32
2022-12-20T07:16:48.235Z,14.63
2022-12-20T07:22:10.099Z,14.40
2022-12-20T07:27:31.933Z,15.43
2022-12-20T07:32:54.213Z,15.15
2022-12-20T07:38:16.034Z,14.82
2022-12-20T07:43:38.268Z,14.10
2022-12-20T07:49:00.188Z,15.18
2022-12-20T07:54:30.324Z,15.82
2022-12-20T07:59:56.927Z,14.73
2022-12-20T08:05:18.880Z,14.95
2022-12-20T08:10:40.910Z,15.27
2022-12-20T08:16:02.763Z,15.00
2022-12-20T08:21:24.593Z,15.65
2022-12-20T08:26:47.145Z,16.15
2022-12-20T08:32:09.316Z,15.52
2022-12-20T08:37:31.214Z,16.92
2022-12-20T08:42:53.022Z,15.23
2022-12-20T08:48:14.857Z,15.38
2022-12-20T08:53:37.185Z,14.07
2022-12-20T08:58:59.049Z,14.75
2022-12-20T09:04:21.860Z,16.38
2022-12-20T09:09:43.684Z,16.20
2022-12-20T09:15:06.388Z,15.38
2022-12-20T09:20:29.291Z,16.00
2022-12-20T09:25:53.960Z,15.43
2022-12-20T09:31:21.539Z,16.90
2022-12-20T09:36:43.400Z,17.00
2022-12-20T09:42:08.040Z,17.48
2022-12-20T09:47:32.633Z,17.67
2022-12-20T09:53:12.205Z,15.77
2022-12-20T09:58:56.276Z,18.10
2022-12-20T10:04:28.872Z,17.23
2022-12-20T10:10:09.056Z,17.73
2022-12-20T10:15:41.264Z,18.23
2022-12-20T10:21:10.976Z,17.90
2022-12-20T10:26:33.694Z,18.67
2022-12-20T10:32:00.735Z,18.25
2022-12-20T10:37:22.917Z,17.73
2022-12-20T10:42:44.839Z,18.75
2022-12-20T10:48:25.667Z,20.05
2022-12-20T10:53:53.469Z,18.52
2022-12-20T10:59:18.075Z,18.98
2022-12-20T11:04:39.914Z,19.83
2022-12-20T11:10:17.108Z,19.85
2022-12-20T11:15:49.611Z,19.30
2022-12-20T11:21:28.567Z,19.70
2022-12-20T11:27:16.123Z,21.13
2022-12-20T11:32:49.035Z,20.67
2022-12-20T11:38:23.130Z,20.92
2022-12-20T11:44:24.531Z,20.50
2022-12-20T11:49:56.635Z,21.08
2022-12-20T11:55:35.023Z,21.70
2022-12-20T12:01:18.538Z,20.92
2022-12-20T12:06:53.459Z,21.08
2022-12-20T12:12:33.322Z,21.52
2022-12-20T12:18:00.892Z,21.33
2022-12-20T12:23:44.165Z,22.52
2022-12-20T12:29:08.923Z,20.63
2022-12-20T12:34:55.525Z,20.10
2022-12-20T12:40:39.310Z,20.85
2022-12-20T12:46:14.007Z,21.50
2022-12-20T12:51:41.278Z,21.75
2022-12-20T12:57:11.876Z,21.15
2022-12-20T13:02:35.873Z,22.15
2022-12-20T13:07:58.023Z,21.85
2022-12-20T13:13:22.949Z,21.70
2022-12-20T13:18:59.096Z,21.08
2022-12-20T13:24:40.074Z,22.20
2022-12-20T13:30:04.637Z,21.65
2022-12-20T13:35:26.494Z,22.05
2022-12-20T13:40:52.546Z,21.50
2022-12-20T13:46:24.183Z,21.83
2022-12-20T13:51:46.107Z,20.92
2022-12-20T13:57:08.063Z,20.58
2022-12-20T14:02:35.075Z,21.38
2022-12-20T14:08:04.721Z,22.17
2022-12-20T14:13:27.676Z,22.27
2022-12-20T14:19:02.681Z,22.88
2022-12-20T14:24:24.562Z,23.73
2022-12-20T14:29:46.434Z,21.80
2022-12-20T14:35:21.393Z,21.65
2022-12-20T14:40:43.287Z,22.20
2022-12-20T14:46:19.183Z,22.67
2022-12-20T14:51:41.168Z,21.98
2022-12-20T14:57:03.201Z,23.17
2022-12-20T15:02:57.331Z,22.60
2022-12-20T15:08:33.289Z,23.10
2022-12-20T15:13:56.415Z,18.87
2022-12-20T15:19:18.228Z,22.33
2022-12-20T15:24:40.036Z,22.92
2022-12-20T15:30:01.988Z,22.25
2022-12-20T15:35:23.871Z,25.15
2022-12-20T15:40:47.652Z,22.23
2022-12-20T15:46:10.590Z,23.45
2022-12-20T15:51:37.565Z,23.13
2022-12-20T15:57:06.713Z,25.13
2022-12-20T16:02:29.900Z,23.08
2022-12-20T16:07:51.966Z,23.65
2022-12-20T16:13:20.903Z,24.13
2022-12-20T16:18:43.141Z,24.83
2022-12-20T16:24:06.617Z,24.73
2022-12-20T16:29:28.514Z,24.52
2022-12-20T16:34:51.428Z,23.60
2022-12-20T16:40:13.538Z,23.33
2022-12-20T16:45:35.388Z,23.88
2022-12-20T16:50:57.835Z,23.60
2022-12-20T16:56:19.786Z,24.38
2022-12-20T17:01:45.201Z,24.33
2022-12-20T17:07:07.209Z,28.67
2022-12-20T17:12:29.054Z,23.25
2022-12-20T17:17:51.236Z,23.00
2022-12-20T17:23:14.045Z,28.60
2022-12-20T17:28:35.911Z,23.17
2022-12-20T17:33:58.320Z,23.08
2022-12-20T17:39:21.464Z,22.60
2022-12-20T17:44:43.414Z,23.73
2022-12-20T17:50:05.997Z,24.75
2022-12-20T17:55:28.409Z,22.67
2022-12-20T18:00:50.442Z,24.60
2022-12-20T18:06:12.399Z,25.88
2022-12-20T18:11:34.772Z,24.08
2022-12-20T18:16:56.754Z,24.55
2022-12-20T18:22:18.641Z,22.77
2022-12-20T18:27:42.113Z,22.58
2022-12-20T18:33:04.068Z,23.85
2022-12-20T18:38:25.937Z,22.90
2022-12-20T18:43:47.818Z,23.25
2022-12-20T18:49:09.953Z,23.15
2022-12-20T18:54:31.852Z,22.85
2022-12-20T18:59:53.741Z,22.77
2022-12-20T19:05:15.730Z,22.52
2022-12-20T19:10:37.583Z,24.33
2022-12-20T19:16:14.543Z,23.30
2022-12-20T19:21:39.792Z,23.80
2022-12-20T19:27:01.633Z,21.60
2022-12-20T19:32:23.507Z,25.05
2022-12-20T19:37:45.304Z,22.73
2022-12-20T19:43:07.511Z,23.27
2022-12-20T19:48:29.531Z,22.73
2022-12-20T19:53:52.201Z,22.17
2022-12-20T19:59:14.085Z,22.58
2022-12-20T20:04:35.921Z,22.60
2022-12-20T20:09:57.818Z,22.40
2022-12-20T20:15:19.664Z,21.48
2022-12-20T20:20:41.510Z,22.98
2022-12-20T20:26:07.659Z,22.63
2022-12-20T20:31:29.755Z,21.13
2022-12-20T20:36:51.701Z,23.45
2022-12-20T20:42:17.274Z,22.13
2022-12-20T20:47:43.365Z,22.48
2022-12-20T20:53:05.770Z,22.40
2022-12-20T20:58:27.611Z,22.60
2022-12-20T21:03:49.518Z,21.75
2022-12-20T21:09:11.603Z,21.73
2022-12-20T21:15:02.325Z,22.05
2022-12-20T21:20:17.505Z,22.50
2022-12-20T21:25:41.213Z,22.27
2022-12-20T21:31:06.062Z,22.75
2022-12-20T21:36:28.297Z,20.88
2022-12-20T21:41:50.411Z,22.08
2022-12-20T21:47:12.328Z,22.33
2022-12-20T21:52:34.183Z,21.63
2022-12-20T21:57:56.115Z,21.92
2022-12-20T22:03:18.025Z,21.38
2022-12-20T22:08:40.003Z,21.70
2022-12-20T22:14:02.017Z,23.08
2022-12-20T22:19:23.923Z,22.02
2022-12-20T22:24:45.740Z,22.08
2022-12-20T22:30:08.343Z,22.38
2022-12-20T22:35:30.233Z,23.10
2022-12-20T22:40:52.087Z,22.52
2022-12-20T22:46:30.718Z,30.42
2022-12-20T22:52:06.312Z,22.27
2022-12-20T22:57:29.408Z,21.85
2022-12-20T23:02:51.424Z,21.23
2022-12-20T23:08:13.474Z,22.63
2022-12-20T23:13:35.471Z,22.45
2022-12-20T23:18:59.800Z,22.30
2022-12-20T23:24:22.042Z,22.33
2022-12-20T23:29:43.945Z,21.30
2022-12-20T23:35:12.238Z,22.55
2022-12-20T23:40:34.483Z,23.45
2022-12-20T23:46:05.115Z,23.33
2022-12-20T23:51:27.114Z,23.13
2022-12-20T23:56:49.250Z,23.98
